Time;durP1;ratioP1;P1;durP2;ratioP2;P2;SDS_P1;SDS_P2;PMS_P1;PMS_P2;Temp;Humidity;BMP_temperature;BMP_pressure;BME280_temperature;BME280_humidity;BME280_pressure;Samples;Min_cycle;Max_cycle;Signal;HPM_P1;HPM_P2
2022/09/02 00:00:36;;;;;;;0.50;0.40;;;16.70;99.90;;;;;;5054298;28;20528;-77
2022/09/02 00:03:04;;;;;;;0.50;0.40;;;16.70;99.90;;;;;;5054032;28;20953;-79
2022/09/02 00:05:30;;;;;;;0.50;0.40;;;16.70;99.90;;;;;;5052802;28;20548;-80
2022/09/02 00:07:58;;;;;;;0.50;0.30;;;16.60;99.90;;;;;;5053364;28;20483;-80
2022/09/02 00:10:25;;;;;;;0.50;0.30;;;16.60;99.90;;;;;;5054060;28;20462;-79
2022/09/02 00:12:52;;;;;;;0.50;0.37;;;16.60;99.90;;;;;;5054076;28;20441;-79
2022/09/02 00:15:19;;;;;;;0.50;0.40;;;16.60;99.90;;;;;;5053722;28;21008;-79
2022/09/02 00:17:46;;;;;;;0.50;0.40;;;16.60;99.90;;;;;;5054090;28;20443;-80
2022/09/02 00:20:13;;;;;;;0.50;0.40;;;16.60;99.90;;;;;;5053152;28;20441;-79
2022/09/02 00:22:40;;;;;;;0.50;0.33;;;16.50;99.90;;;;;;5054199;28;20556;-78
2022/09/02 00:25:09;;;;;;;0.50;0.30;;;16.60;99.90;;;;;;5053573;28;20457;-79
2022/09/02 00:27:36;;;;;;;0.50;0.33;;;16.40;99.90;;;;;;5053629;28;20842;-79
2022/09/02 00:30:03;;;;;;;0.50;0.40;;;16.40;99.90;;;;;;5053532;28;20561;-79
2022/09/02 00:32:30;;;;;;;0.50;0.33;;;16.40;99.90;;;;;;5053717;28;20445;-79
2022/09/02 00:34:58;;;;;;;0.50;0.30;;;16.40;99.90;;;;;;5053514;28;20886;-79
2022/09/02 00:37:25;;;;;;;0.50;0.40;;;16.40;99.90;;;;;;5053307;28;20958;-79
2022/09/02 00:39:53;;;;;;;0.50;0.40;;;16.40;99.90;;;;;;5053589;28;20499;-80
2022/09/02 00:42:22;;;;;;;0.80;0.80;;;16.40;99.90;;;;;;5053556;28;20471;-79
2022/09/02 00:44:50;;;;;;;0.50;0.40;;;16.40;99.90;;;;;;5053447;28;20461;-79
2022/09/02 00:47:17;;;;;;;0.50;0.40;;;16.40;99.90;;;;;;5053567;28;20887;-79
2022/09/02 00:49:48;;;;;;;0.50;0.40;;;16.20;99.90;;;;;;5053625;28;20444;-80
2022/09/02 00:52:19;;;;;;;0.50;0.40;;;16.20;99.90;;;;;;5053182;28;20465;-80
2022/09/02 00:54:49;;;;;;;0.50;0.40;;;16.30;99.90;;;;;;5052958;28;20974;-79
2022/09/02 00:57:20;;;;;;;0.50;0.40;;;16.20;99.90;;;;;;5053224;28;20806;-79
2022/09/02 00:59:54;;;;;;;0.50;0.40;;;16.20;99.90;;;;;;5053250;28;20542;-79
2022/09/02 01:02:22;;;;;;;0.50;0.30;;;16.20;99.90;;;;;;5053377;28;20920;-80
2022/09/02 01:04:49;;;;;;;0.50;0.30;;;16.10;99.90;;;;;;5051840;28;20465;-79
2022/09/02 01:07:16;;;;;;;0.50;0.40;;;16.00;99.90;;;;;;5052892;28;20914;-80
2022/09/02 01:09:43;;;;;;;0.50;0.40;;;16.00;99.90;;;;;;5053033;28;20501;-79
2022/09/02 01:12:12;;;;;;;0.50;0.40;;;16.00;99.90;;;;;;5052955;28;20944;-79
2022/09/02 01:14:39;;;;;;;0.50;0.40;;;16.00;99.90;;;;;;5053602;28;21055;-79
2022/09/02 01:17:08;;;;;;;0.50;0.40;;;16.00;99.90;;;;;;5057219;28;20445;-79
2022/09/02 01:19:39;;;;;;;0.50;0.33;;;16.00;99.90;;;;;;5057302;28;20443;-77
2022/09/02 01:22:16;;;;;;;0.50;0.40;;;15.90;99.90;;;;;;5056815;28;20428;-80
2022/09/02 01:24:43;;;;;;;0.60;0.53;;;15.80;99.90;;;;;;5056051;28;20940;-79
2022/09/02 01:27:13;;;;;;;0.50;0.40;;;15.80;99.90;;;;;;5056589;28;20459;-79
2022/09/02 01:29:40;;;;;;;0.50;0.30;;;15.80;99.90;;;;;;5056547;28;20480;-79
2022/09/02 01:32:07;;;;;;;0.50;0.40;;;15.70;99.90;;;;;;5057831;28;20441;-80
2022/09/02 01:34:34;;;;;;;0.50;0.40;;;15.60;99.90;;;;;;5056042;28;20471;-78
2022/09/02 01:37:01;;;;;;;0.50;0.40;;;15.60;99.90;;;;;;5057077;28;20452;-80
2022/09/02 01:39:29;;;;;;;0.50;0.40;;;15.60;99.90;;;;;;5056616;28;20523;-79
2022/09/02 01:41:56;;;;;;;0.50;0.30;;;15.50;99.90;;;;;;5056798;28;20490;-79
2022/09/02 01:44:25;;;;;;;0.50;0.47;;;15.50;99.90;;;;;;5056557;28;20467;-79
2022/09/02 01:46:52;;;;;;;0.50;0.40;;;15.50;99.90;;;;;;5056575;28;20506;-79
2022/09/02 01:49:19;;;;;;;0.50;0.40;;;15.40;99.90;;;;;;5056018;28;21175;-79
2022/09/02 01:51:46;;;;;;;0.50;0.30;;;15.30;99.90;;;;;;5056553;28;20445;-80
2022/09/02 01:54:13;;;;;;;0.50;0.40;;;15.20;99.90;;;;;;5056135;28;20465;-79
2022/09/02 01:56:41;;;;;;;0.50;0.40;;;15.20;99.90;;;;;;5056296;28;20447;-79
2022/09/02 01:59:10;;;;;;;0.50;0.40;;;15.20;99.90;;;;;;5056903;28;20881;-79
2022/09/02 02:01:37;;;;;;;0.50;0.40;;;15.10;99.90;;;;;;5056475;28;20880;-79
2022/09/02 02:04:04;;;;;;;0.50;0.33;;;15.10;99.90;;;;;;5054797;28;20550;-80
2022/09/02 02:06:31;;;;;;;0.50;0.40;;;15.10;99.90;;;;;;5056504;28;20931;-77
2022/09/02 02:08:58;;;;;;;0.50;0.40;;;15.10;99.90;;;;;;5055719;28;20473;-79
2022/09/02 02:11:25;;;;;;;0.50;0.40;;;15.10;99.90;;;;;;5055609;28;20543;-79
2022/09/02 02:13:53;;;;;;;0.50;0.40;;;15.00;99.90;;;;;;5055178;28;20992;-77
2022/09/02 02:16:20;;;;;;;0.50;0.40;;;15.00;99.90;;;;;;5055760;28;20456;-79
2022/09/02 02:18:47;;;;;;;0.50;0.33;;;15.00;99.90;;;;;;5055748;28;20472;-80
2022/09/02 02:21:14;;;;;;;0.50;0.40;;;15.10;99.90;;;;;;5055172;28;20441;-79
2022/09/02 02:23:41;;;;;;;0.50;0.40;;;15.10;99.90;;;;;;5055385;28;20450;-79
2022/09/02 02:26:08;;;;;;;0.50;0.40;;;15.10;99.90;;;;;;5055430;28;20440;-80
2022/09/02 02:28:35;;;;;;;0.50;0.40;;;15.20;99.90;;;;;;5055369;28;20537;-76
2022/09/02 02:31:03;;;;;;;0.50;0.40;;;15.10;99.90;;;;;;5058497;28;20447;-79
2022/09/02 02:33:30;;;;;;;0.50;0.40;;;15.10;99.90;;;;;;5060714;28;20441;-81
2022/09/02 02:35:57;;;;;;;0.50;0.40;;;15.10;99.90;;;;;;5059661;28;21057;-80
2022/09/02 02:38:24;;;;;;;0.50;0.40;;;15.10;99.90;;;;;;5060644;28;20437;-80
2022/09/02 02:40:56;;;;;;;0.50;0.40;;;15.10;99.90;;;;;;5061033;28;20441;-80
2022/09/02 02:43:23;;;;;;;0.50;0.40;;;15.00;99.90;;;;;;5060971;28;20494;-80
2022/09/02 02:45:50;;;;;;;0.50;0.40;;;15.00;99.90;;;;;;5060875;28;20457;-79
2022/09/02 02:48:18;;;;;;;0.50;0.40;;;14.90;99.90;;;;;;5058120;28;21021;-78
2022/09/02 02:50:45;;;;;;;0.50;0.40;;;14.90;99.90;;;;;;5055365;28;21005;-79
2022/09/02 02:53:12;;;;;;;0.50;0.40;;;14.90;99.90;;;;;;5055739;28;20440;-79
2022/09/02 02:55:40;;;;;;;0.50;0.40;;;14.90;99.90;;;;;;5054860;28;20515;-80
2022/09/02 02:58:07;;;;;;;0.50;0.40;;;14.80;99.90;;;;;;5055229;28;20532;-79
2022/09/02 03:00:35;;;;;;;0.50;0.50;;;14.80;99.90;;;;;;5055534;28;20437;-79
2022/09/02 03:03:03;;;;;;;0.50;0.40;;;14.80;99.90;;;;;;5055503;28;20437;-79
2022/09/02 03:05:36;;;;;;;0.50;0.40;;;14.80;99.90;;;;;;5054865;28;20452;-76
2022/09/02 03:08:04;;;;;;;0.50;0.40;;;14.80;99.90;;;;;;5055568;28;20544;-79
2022/09/02 03:10:32;;;;;;;0.50;0.37;;;14.80;99.90;;;;;;5054779;28;20441;-79
2022/09/02 03:12:59;;;;;;;0.50;0.40;;;14.80;99.90;;;;;;5054348;28;20918;-79
2022/09/02 03:15:26;;;;;;;0.50;0.40;;;14.70;99.90;;;;;;5053508;28;20885;-78
2022/09/02 03:17:54;;;;;;;0.50;0.40;;;14.80;99.90;;;;;;5053344;28;20443;-79
2022/09/02 03:20:21;;;;;;;0.50;0.40;;;14.80;99.90;;;;;;5053075;28;21260;-77
2022/09/02 03:22:51;;;;;;;0.50;0.40;;;14.70;99.90;;;;;;5053299;28;20433;-77
2022/09/02 03:25:20;;;;;;;0.97;0.97;;;14.70;99.90;;;;;;5052784;28;20219;-77
2022/09/02 03:27:48;;;;;;;0.50;0.40;;;14.70;99.90;;;;;;5053063;28;20814;-77
2022/09/02 03:30:19;;;;;;;0.50;0.40;;;14.70;99.90;;;;;;5052947;28;20903;-78
2022/09/02 03:32:46;;;;;;;0.50;0.37;;;14.70;99.90;;;;;;5052835;28;20446;-78
2022/09/02 03:35:17;;;;;;;0.50;0.40;;;14.70;99.90;;;;;;5052997;28;20461;-78
2022/09/02 03:37:44;;;;;;;0.50;0.40;;;14.60;99.90;;;;;;5052599;28;20791;-78
2022/09/02 03:40:15;;;;;;;0.50;0.40;;;14.60;99.90;;;;;;5052935;28;20433;-79
2022/09/02 03:42:42;;;;;;;0.50;0.40;;;14.60;99.90;;;;;;5053066;28;20476;-77
2022/09/02 03:45:11;;;;;;;0.50;0.40;;;14.60;99.90;;;;;;5052266;28;21009;-78
2022/09/02 03:47:42;;;;;;;0.50;0.40;;;14.70;99.90;;;;;;5053281;28;20821;-78
2022/09/02 03:50:10;;;;;;;0.50;0.37;;;14.70;99.90;;;;;;5053023;28;20457;-78
2022/09/02 03:52:36;;;;;;;0.50;0.40;;;14.70;99.90;;;;;;5052571;28;20520;-78
2022/09/02 03:55:04;;;;;;;0.50;0.40;;;14.80;99.90;;;;;;5052482;28;20460;-79
2022/09/02 03:57:32;;;;;;;0.50;0.40;;;14.80;99.90;;;;;;5053244;28;20450;-77
2022/09/02 03:59:59;;;;;;;0.50;0.40;;;14.80;99.90;;;;;;5052695;28;20536;-77
2022/09/02 04:02:25;;;;;;;0.50;0.40;;;14.90;99.90;;;;;;5053650;28;20448;-78
2022/09/02 04:04:53;;;;;;;0.50;0.40;;;14.90;99.90;;;;;;5056805;28;20483;-78
2022/09/02 04:07:20;;;;;;;0.50;0.40;;;14.90;99.90;;;;;;5053442;28;20940;-79
2022/09/02 04:09:47;;;;;;;0.50;0.40;;;14.90;99.90;;;;;;5055316;28;20477;-78
2022/09/02 04:12:14;;;;;;;0.50;0.40;;;14.90;99.90;;;;;;5054830;28;20498;-78
2022/09/02 04:14:42;;;;;;;0.50;0.40;;;15.00;99.90;;;;;;5052562;28;20549;-78
2022/09/02 04:17:09;;;;;;;0.50;0.40;;;15.00;99.90;;;;;;5052299;28;20536;-78
2022/09/02 04:19:38;;;;;;;0.50;0.40;;;14.90;99.90;;;;;;5052782;28;20433;-78
2022/09/02 04:22:05;;;;;;;0.50;0.40;;;15.00;99.90;;;;;;5051769;28;20441;-78
2022/09/02 04:24:31;;;;;;;0.50;0.40;;;14.90;99.90;;;;;;5062326;28;20466;-77
2022/09/02 04:26:58;;;;;;;0.50;0.40;;;14.90;99.90;;;;;;5073154;28;20438;-79
2022/09/02 04:29:25;;;;;;;0.50;0.40;;;14.80;99.90;;;;;;5073489;28;20554;-78
2022/09/02 04:31:54;;;;;;;0.50;0.40;;;14.80;99.90;;;;;;5071677;28;20443;-78
2022/09/02 04:34:21;;;;;;;0.50;0.40;;;14.80;99.90;;;;;;5071261;28;20464;-78
2022/09/02 04:36:47;;;;;;;0.50;0.40;;;14.80;99.90;;;;;;5072128;28;20437;-77
2022/09/02 04:39:14;;;;;;;0.50;0.40;;;14.80;99.90;;;;;;5072079;28;20797;-78
2022/09/02 04:41:41;;;;;;;0.50;0.40;;;14.80;99.90;;;;;;5071758;28;20519;-76
2022/09/02 04:44:08;;;;;;;0.50;0.40;;;14.90;99.90;;;;;;5071917;28;20458;-77
2022/09/02 04:46:35;;;;;;;0.50;0.40;;;14.80;99.90;;;;;;5071392;28;20201;-76
2022/09/02 04:49:04;;;;;;;0.50;0.33;;;14.90;99.90;;;;;;5049999;28;20561;-78
2022/09/02 04:51:31;;;;;;;0.50;0.30;;;14.80;99.90;;;;;;5051483;28;20437;-78
2022/09/02 04:53:58;;;;;;;0.50;0.40;;;14.80;99.90;;;;;;5053639;28;20217;-76
2022/09/02 04:56:27;;;;;;;0.50;0.40;;;14.80;99.90;;;;;;5054434;28;20440;-77
2022/09/02 04:58:55;;;;;;;0.50;0.40;;;14.80;99.90;;;;;;5055887;28;20455;-78
2022/09/02 05:01:25;;;;;;;0.50;0.40;;;14.70;99.90;;;;;;5054120;28;20895;-77
2022/09/02 05:03:52;;;;;;;0.50;0.40;;;14.70;99.90;;;;;;5053314;28;20472;-77
2022/09/02 05:06:23;;;;;;;0.50;0.40;;;14.60;99.90;;;;;;5054112;28;20225;-79
2022/09/02 05:08:50;;;;;;;0.50;0.30;;;14.60;99.90;;;;;;5055116;28;20495;-78
2022/09/02 05:11:19;;;;;;;0.50;0.40;;;14.60;99.90;;;;;;5055140;28;20519;-78
2022/09/02 05:13:50;;;;;;;0.50;0.40;;;14.70;99.90;;;;;;5053551;28;20487;-77
2022/09/02 05:16:17;;;;;;;0.50;0.40;;;14.70;99.90;;;;;;5053349;28;20425;-79
2022/09/02 05:18:44;;;;;;;0.50;0.40;;;14.70;99.90;;;;;;5052973;28;20461;-77
2022/09/02 05:21:11;;;;;;;0.50;0.40;;;14.70;99.90;;;;;;5053196;28;20444;-77
2022/09/02 05:23:39;;;;;;;0.60;0.60;;;14.80;99.90;;;;;;5051505;28;20477;-78
2022/09/02 05:26:07;;;;;;;0.50;0.30;;;14.90;99.90;;;;;;5050712;28;20448;-77
2022/09/02 05:28:34;;;;;;;0.50;0.40;;;14.90;99.90;;;;;;5050773;28;20555;-77
2022/09/02 05:31:04;;;;;;;0.50;0.40;;;15.00;99.90;;;;;;5051324;28;20535;-76
2022/09/02 05:33:31;;;;;;;0.50;0.40;;;15.20;99.90;;;;;;5049885;28;20569;-78
2022/09/02 05:35:58;;;;;;;0.50;0.40;;;15.20;99.90;;;;;;5051913;28;20437;-79
2022/09/02 05:38:25;;;;;;;0.50;0.40;;;15.30;99.90;;;;;;5052533;28;20532;-77
2022/09/02 05:40:53;;;;;;;0.50;0.40;;;15.40;99.90;;;;;;5051246;28;20451;-77
2022/09/02 05:43:20;;;;;;;0.50;0.30;;;15.50;99.90;;;;;;5050897;28;20441;-78
2022/09/02 05:45:47;;;;;;;0.50;0.40;;;15.50;99.90;;;;;;5050896;28;20467;-80
2022/09/02 05:51:13;;;;;;;0.83;0.83;;;15.60;99.90;;;;;;4990893;28;20420;-79
2022/09/02 05:53:40;;;;;;;0.50;0.40;;;15.80;99.90;;;;;;4989996;28;20438;-79
2022/09/02 05:56:08;;;;;;;1.47;1.37;;;15.80;99.90;;;;;;5016554;28;20441;-77
2022/09/02 05:58:35;;;;;;;0.50;0.40;;;15.80;99.90;;;;;;5051279;28;20540;-78
2022/09/02 06:01:07;;;;;;;0.50;0.40;;;15.80;99.90;;;;;;5053388;28;20514;-78
2022/09/02 06:03:34;;;;;;;0.50;0.40;;;16.00;99.90;;;;;;5054642;28;20989;-79
2022/09/02 06:06:01;;;;;;;0.50;0.40;;;16.10;99.90;;;;;;5054919;28;20439;-79
2022/09/02 06:08:28;;;;;;;0.50;0.50;;;16.10;99.90;;;;;;5055682;28;20440;-80
2022/09/02 06:10:55;;;;;;;0.50;0.30;;;16.30;99.90;;;;;;5056815;28;20476;-80
2022/09/02 06:13:23;;;;;;;0.50;0.40;;;17.30;99.90;;;;;;5055897;28;20479;-79
2022/09/02 06:15:51;;;;;;;0.50;0.40;;;18.00;99.90;;;;;;5054773;28;20466;-77
2022/09/02 06:18:18;;;;;;;0.50;0.50;;;18.10;99.90;;;;;;5053964;28;20448;-77
2022/09/02 06:20:47;;;;;;;0.50;0.30;;;18.00;99.90;;;;;;5054342;28;20476;-79
2022/09/02 06:23:15;;;;;;;0.50;0.33;;;17.90;99.90;;;;;;5054327;28;20465;-77
2022/09/02 06:25:44;;;;;;;0.53;0.50;;;18.10;99.90;;;;;;5054328;28;20464;-79
2022/09/02 06:28:11;;;;;;;0.50;0.40;;;18.90;99.90;;;;;;5054264;28;20930;-77
2022/09/02 06:30:41;;;;;;;0.50;0.40;;;19.40;99.90;;;;;;5053534;28;20480;-77
2022/09/02 06:33:08;;;;;;;0.50;0.30;;;19.60;99.60;;;;;;5052866;28;20475;-77
2022/09/02 06:35:38;;;;;;;0.50;0.30;;;19.40;98.10;;;;;;5053052;28;20974;-77
2022/09/02 06:38:05;;;;;;;0.50;0.30;;;19.20;98.00;;;;;;5053607;28;20449;-77
2022/09/02 06:40:32;;;;;;;0.50;0.30;;;19.10;98.10;;;;;;5053491;28;20802;-77
2022/09/02 06:42:59;;;;;;;0.50;0.40;;;19.00;99.90;;;;;;5053870;28;20439;-77
2022/09/02 06:45:26;;;;;;;0.50;0.30;;;18.90;99.50;;;;;;5053249;28;20597;-77
2022/09/02 06:47:54;;;;;;;0.80;0.70;;;19.10;99.90;;;;;;5053611;28;20817;-77
2022/09/02 06:50:21;;;;;;;0.50;0.30;;;20.10;99.90;;;;;;5052890;28;20487;-77
2022/09/02 06:52:48;;;;;;;0.50;0.37;;;20.60;94.40;;;;;;5053414;28;21037;-77
2022/09/02 06:55:16;;;;;;;0.50;0.40;;;21.10;93.80;;;;;;5052920;28;20540;-78
2022/09/02 06:57:43;;;;;;;0.60;0.40;;;22.40;92.60;;;;;;5053278;28;20445;-77
2022/09/02 07:00:11;;;;;;;0.50;0.40;;;22.90;84.10;;;;;;5053250;28;20465;-78
2022/09/02 07:02:38;;;;;;;0.50;0.30;;;22.70;78.30;;;;;;5052977;28;20449;-76
2022/09/02 07:05:13;;;;;;;0.50;0.40;;;22.30;77.90;;;;;;5052874;28;20453;-77
2022/09/02 07:07:43;;;;;;;0.50;0.30;;;21.80;78.80;;;;;;5052828;28;21096;-78
2022/09/02 07:10:12;;;;;;;0.50;0.30;;;21.20;80.10;;;;;;5053066;28;20523;-78
2022/09/02 07:12:41;;;;;;;0.50;0.30;;;20.80;82.30;;;;;;5052048;28;20455;-77
2022/09/02 07:15:09;;;;;;;0.50;0.30;;;20.30;84.10;;;;;;5052521;28;20457;-77
2022/09/02 07:17:36;;;;;;;0.50;0.30;;;19.90;87.60;;;;;;5052741;28;20964;-74
2022/09/02 07:20:04;;;;;;;0.50;0.30;;;19.60;91.00;;;;;;5052640;28;20440;-76
2022/09/02 07:22:32;;;;;;;0.50;0.30;;;19.40;93.30;;;;;;5052829;28;20811;-76
2022/09/02 07:24:59;;;;;;;0.50;0.30;;;19.30;95.30;;;;;;5052502;28;20469;-77
2022/09/02 07:27:26;;;;;;;0.50;0.40;;;19.30;98.80;;;;;;5052794;28;20829;-77
2022/09/02 07:29:53;;;;;;;0.50;0.30;;;19.20;99.90;;;;;;5052593;28;20472;-77
2022/09/02 07:32:20;;;;;;;0.50;0.30;;;19.40;99.90;;;;;;5052120;28;20445;-78
2022/09/02 07:34:47;;;;;;;0.60;0.60;;;19.50;98.70;;;;;;5053565;28;20456;-77
2022/09/02 07:37:14;;;;;;;1.43;0.80;;;19.60;98.70;;;;;;5052399;28;20445;-77
2022/09/02 07:39:44;;;;;;;0.50;0.30;;;19.70;96.70;;;;;;5052549;28;20532;-77
2022/09/02 07:42:11;;;;;;;0.50;0.30;;;19.90;97.10;;;;;;5052734;28;20944;-78
2022/09/02 07:44:38;;;;;;;0.50;0.30;;;20.10;99.90;;;;;;5051907;28;20547;-77
2022/09/02 07:47:06;;;;;;;0.50;0.30;;;20.30;96.20;;;;;;5052453;28;20436;-77
2022/09/02 07:49:33;;;;;;;0.50;0.30;;;20.40;94.10;;;;;;5052265;28;20491;-77
2022/09/02 07:52:00;;;;;;;0.50;0.30;;;20.40;92.90;;;;;;5051993;28;20437;-77
2022/09/02 07:54:28;;;;;;;0.50;0.40;;;20.50;91.70;;;;;;5051517;28;20473;-77
2022/09/02 07:56:56;;;;;;;0.50;0.30;;;20.70;91.40;;;;;;5051893;28;20447;-76
2022/09/02 07:59:23;;;;;;;0.50;0.30;;;21.80;92.40;;;;;;5052164;28;20457;-77
2022/09/02 08:01:51;;;;;;;0.50;0.40;;;23.00;87.30;;;;;;5052231;28;20445;-78
2022/09/02 08:04:20;;;;;;;0.50;0.30;;;24.40;81.30;;;;;;5051584;28;20556;-78
2022/09/02 08:06:47;;;;;;;0.50;0.40;;;24.90;74.10;;;;;;5052136;28;20441;-77
2022/09/02 08:09:13;;;;;;;0.50;0.30;;;24.90;72.50;;;;;;5051471;28;20953;-77
2022/09/02 08:11:43;;;;;;;0.50;0.30;;;24.80;71.40;;;;;;5052065;28;20485;-77
2022/09/02 08:14:16;;;;;;;0.50;0.30;;;24.80;70.90;;;;;;5051018;28;20969;-78
2022/09/02 08:16:44;;;;;;;0.50;0.30;;;24.50;70.30;;;;;;5052112;28;20429;-78
2022/09/02 08:19:12;;;;;;;1.33;1.27;;;25.50;73.40;;;;;;5051587;28;20528;-78
2022/09/02 08:21:39;;;;;;;0.50;0.30;;;27.80;68.80;;;;;;5052920;28;20439;-78
2022/09/02 08:24:05;;;;;;;0.50;0.30;;;29.40;62.60;;;;;;5052996;28;21014;-78
2022/09/02 08:26:35;;;;;;;1.50;1.23;;;30.00;58.30;;;;;;5054203;28;20500;-78
2022/09/02 08:29:02;;;;;;;0.50;0.30;;;29.80;54.90;;;;;;5053137;28;20442;-77
2022/09/02 08:31:31;;;;;;;0.50;0.30;;;29.00;55.80;;;;;;5052559;28;20966;-78
2022/09/02 08:33:58;;;;;;;0.50;0.30;;;28.90;56.50;;;;;;5052300;28;20499;-78
2022/09/02 08:36:26;;;;;;;0.50;0.30;;;29.50;56.80;;;;;;5052545;28;20444;-78
2022/09/02 08:38:54;;;;;;;0.50;0.30;;;30.00;55.80;;;;;;5052232;28;20503;-77
2022/09/02 08:41:23;;;;;;;0.50;0.30;;;30.70;55.30;;;;;;5051636;28;20449;-78
2022/09/02 08:43:52;;;;;;;0.60;0.50;;;31.90;54.80;;;;;;5050930;28;20465;-77
2022/09/02 08:46:24;;;;;;;0.50;0.30;;;33.20;51.90;;;;;;5051531;28;20449;-78
2022/09/02 08:48:55;;;;;;;0.50;0.30;;;33.10;50.10;;;;;;5050998;28;20860;-77
2022/09/02 08:51:28;;;;;;;0.67;0.63;;;33.10;49.90;;;;;;5051478;28;20477;-77
2022/09/02 08:54:00;;;;;;;0.50;0.30;;;33.50;49.40;;;;;;5051508;28;20472;-75
2022/09/02 08:56:28;;;;;;;0.50;0.30;;;33.90;49.40;;;;;;5050998;28;20420;-78
2022/09/02 08:58:56;;;;;;;19.97;1.80;;;33.80;48.70;;;;;;5051431;28;20810;-77
2022/09/02 09:01:33;;;;;;;0.50;0.30;;;34.80;49.20;;;;;;5051108;28;20429;-78
2022/09/02 09:04:25;;;;;;;0.50;0.30;;;36.20;46.90;;;;;;5050907;28;20536;-79
2022/09/02 09:07:09;;;;;;;0.50;0.30;;;37.10;46.00;;;;;;5047995;28;20445;-78
2022/09/02 09:09:49;;;;;;;0.50;0.30;;;36.10;44.60;;;;;;5051645;28;20420;-78
2022/09/02 09:12:25;;;;;;;0.50;0.30;;;34.70;45.90;;;;;;5051131;28;20748;-78
2022/09/02 09:15:03;;;;;;;0.60;0.53;;;34.50;47.30;;;;;;5050716;28;20461;-79
2022/09/02 09:17:37;;;;;;;0.50;0.30;;;35.20;47.40;;;;;;5050885;28;20444;-78
2022/09/02 09:20:18;;;;;;;0.47;0.30;;;35.00;46.60;;;;;;5050985;28;20425;-78
2022/09/02 09:22:47;;;;;;;0.50;0.30;;;34.60;46.20;;;;;;5050822;28;20429;-75
2022/09/02 09:25:16;;;;;;;0.50;0.30;;;33.80;47.00;;;;;;5050571;28;20497;-78
2022/09/02 09:27:45;;;;;;;0.50;0.30;;;33.30;48.90;;;;;;5050946;28;20437;-78
2022/09/02 09:30:13;;;;;;;0.50;0.30;;;33.60;48.20;;;;;;5050136;28;20477;-78
2022/09/02 09:32:45;;;;;;;0.50;0.30;;;33.20;47.70;;;;;;5050344;28;20437;-78
2022/09/02 09:35:14;;;;;;;0.50;0.30;;;32.80;48.30;;;;;;5050321;28;21016;-78
2022/09/02 09:37:43;;;;;;;6.53;2.20;;;31.80;49.50;;;;;;5054977;28;20539;-78
2022/09/02 09:40:25;;;;;;;0.50;0.30;;;31.80;50.10;;;;;;5054457;28;20927;-78
2022/09/02 09:42:55;;;;;;;0.50;0.30;;;32.10;51.40;;;;;;5054930;28;20427;-80
2022/09/02 09:45:28;;;;;;;0.50;0.30;;;33.60;50.40;;;;;;5054603;28;20909;-79
2022/09/02 09:48:22;;;;;;;0.50;0.30;;;34.20;47.50;;;;;;5055053;28;20523;-78
2022/09/02 09:51:12;;;;;;;0.50;0.30;;;34.30;47.30;;;;;;5054145;28;20477;-79
2022/09/02 09:53:40;;;;;;;0.50;0.30;;;34.50;46.10;;;;;;5054789;28;20502;-78
2022/09/02 09:56:22;;;;;;;0.50;0.30;;;35.10;46.80;;;;;;5054254;28;20448;-79
2022/09/02 09:58:51;;;;;;;0.40;0.30;;;36.30;46.10;;;;;;5054832;28;20451;-79
2022/09/02 10:01:21;;;;;;;0.40;0.30;;;36.90;45.00;;;;;;5054443;28;20539;-79
2022/09/02 10:03:52;;;;;;;0.40;0.30;;;37.50;43.30;;;;;;5054753;28;20534;-79
2022/09/02 10:06:22;;;;;;;0.50;0.30;;;36.70;43.20;;;;;;5054522;28;20818;-78
2022/09/02 10:08:52;;;;;;;0.50;0.30;;;35.60;44.30;;;;;;5055028;28;20436;-79
2022/09/02 10:11:22;;;;;;;0.50;0.30;;;34.80;44.10;;;;;;5054023;28;20472;-78
2022/09/02 10:13:49;;;;;;;0.50;0.30;;;33.80;46.00;;;;;;5054096;28;20807;-78
2022/09/02 10:16:36;;;;;;;0.50;0.30;;;32.20;47.40;;;;;;5053834;28;20946;-78
2022/09/02 10:19:14;;;;;;;0.50;0.50;;;31.10;49.30;;;;;;5044124;28;20968;-78
2022/09/02 10:22:03;;;;;;;0.50;0.30;;;30.40;51.00;;;;;;5054296;28;20439;-78
2022/09/02 10:24:50;;;;;;;0.60;0.57;;;29.90;52.20;;;;;;5053678;28;20453;-78
2022/09/02 10:27:24;;;;;;;0.50;0.30;;;29.50;52.80;;;;;;5053774;28;20413;-78
2022/09/02 10:29:57;;;;;;;0.50;0.30;;;28.80;53.00;;;;;;5053887;28;20482;-78
2022/09/02 10:32:50;;;;;;;0.60;0.40;;;28.30;53.80;;;;;;5053443;28;20479;-77
2022/09/02 10:35:25;;;;;;;0.50;0.30;;;27.80;53.90;;;;;;5053646;28;21413;-78
2022/09/02 10:38:06;;;;;;;0.50;0.30;;;27.60;54.30;;;;;;5053475;28;20511;-78
2022/09/02 10:40:40;;;;;;;0.50;0.30;;;27.30;55.80;;;;;;5053679;28;20500;-78
2022/09/02 10:43:09;;;;;;;0.50;0.30;;;27.30;56.80;;;;;;5053698;28;20567;-78
2022/09/02 10:45:42;;;;;;;1.20;1.07;;;27.60;56.00;;;;;;5053076;28;20456;-77
2022/09/02 10:48:32;;;;;;;0.60;0.40;;;27.80;55.30;;;;;;5052376;28;20463;-78
2022/09/02 10:51:04;;;;;;;0.50;0.30;;;28.10;54.80;;;;;;5053379;28;20473;-78
2022/09/02 10:53:42;;;;;;;0.50;0.40;;;28.70;54.60;;;;;;5053022;28;20430;-78
2022/09/02 10:56:14;;;;;;;0.50;0.30;;;29.20;53.60;;;;;;5052919;28;20476;-78
2022/09/02 10:58:47;;;;;;;0.50;0.30;;;29.10;52.20;;;;;;5053324;28;20989;-76
2022/09/02 11:01:20;;;;;;;0.50;0.30;;;28.40;52.40;;;;;;5054185;28;20418;-79
2022/09/02 11:03:58;;;;;;;0.50;0.30;;;27.80;52.90;;;;;;5054199;28;20468;-78
2022/09/02 11:06:29;;;;;;;0.50;0.30;;;27.40;53.60;;;;;;5055221;28;20431;-78
2022/09/02 11:09:01;;;;;;;0.50;0.30;;;27.20;54.90;;;;;;5055392;28;20532;-77
2022/09/02 11:11:36;;;;;;;0.50;0.33;;;27.10;54.30;;;;;;5053914;28;20476;-78
2022/09/02 11:14:16;;;;;;;0.60;0.40;;;27.20;55.60;;;;;;5054526;28;20453;-81
2022/09/02 11:16:47;;;;;;;0.50;0.30;;;27.20;55.00;;;;;;5055867;28;20529;-79
2022/09/02 11:19:19;;;;;;;0.50;0.30;;;27.50;54.90;;;;;;5053297;28;20443;-78
2022/09/02 11:21:55;;;;;;;0.50;0.30;;;27.90;54.00;;;;;;5052774;28;20443;-76
2022/09/02 11:24:31;;;;;;;0.50;0.30;;;28.30;54.50;;;;;;5052371;28;20535;-78
2022/09/02 11:27:05;;;;;;;1.63;0.87;;;28.50;54.20;;;;;;5052847;28;20425;-78
2022/09/02 11:29:40;;;;;;;0.50;0.30;;;28.70;54.20;;;;;;5052651;28;20520;-78
2022/09/02 11:32:17;;;;;;;0.50;0.40;;;28.80;52.60;;;;;;5052494;28;20484;-79
2022/09/02 11:34:47;;;;;;;0.50;0.30;;;28.60;52.50;;;;;;5052647;28;20627;-78
2022/09/02 11:37:28;;;;;;;0.50;0.30;;;28.60;52.20;;;;;;5051912;28;20844;-78
2022/09/02 11:40:02;;;;;;;0.50;0.30;;;28.30;51.60;;;;;;5052787;28;20921;-79
2022/09/02 11:42:51;;;;;;;0.50;0.50;;;28.20;49.40;;;;;;5052627;28;20445;-76
2022/09/02 11:45:40;;;;;;;0.50;0.30;;;28.30;48.50;;;;;;5052563;28;20966;-78
2022/09/02 11:48:50;;;;;;;0.50;0.30;;;27.60;47.80;;;;;;5052607;28;20428;-77
2022/09/02 11:52:00;;;;;;;0.50;0.30;;;27.30;49.40;;;;;;5023706;28;20997;-78
2022/09/02 11:54:33;;;;;;;0.50;0.30;;;27.40;49.00;;;;;;4990546;28;20444;-78
2022/09/02 11:57:03;;;;;;;0.50;0.30;;;27.50;48.30;;;;;;4990559;28;21100;-78
2022/09/02 12:00:09;;;;;;;0.50;0.30;;;27.80;48.80;;;;;;4990083;28;20458;-78
2022/09/02 12:02:42;;;;;;;0.50;0.40;;;27.90;48.60;;;;;;4990599;28;20535;-78
2022/09/02 12:05:50;;;;;;;0.70;0.47;;;27.60;48.90;;;;;;4989746;28;20555;-77
2022/09/02 12:08:53;;;;;;;0.50;0.30;;;27.90;48.30;;;;;;4913752;29;20447;-77
2022/09/02 12:11:49;;;;;;;0.50;0.30;;;28.60;48.50;;;;;;4913486;29;20901;-78
2022/09/02 12:15:07;;;;;;;0.80;0.40;;;29.10;46.80;;;;;;4985884;28;20487;-78
2022/09/02 12:17:42;;;;;;;0.50;0.30;;;29.60;46.40;;;;;;4990558;28;20426;-78
2022/09/02 12:20:11;;;;;;;0.50;0.30;;;30.50;45.90;;;;;;4989999;28;20448;-79
2022/09/02 12:22:39;;;;;;;0.50;0.30;;;31.80;44.50;;;;;;4990221;28;20531;-78
2022/09/02 12:25:41;;;;;;;0.50;0.40;;;32.30;43.10;;;;;;5012492;28;20986;-78
2022/09/02 12:28:26;;;;;;;0.50;0.37;;;32.60;42.30;;;;;;5051907;28;20424;-78
2022/09/02 12:31:17;;;;;;;0.50;0.30;;;32.60;41.60;;;;;;5051321;28;20528;-78
2022/09/02 12:33:45;;;;;;;0.50;0.30;;;32.60;42.40;;;;;;5051442;28;20791;-77
2022/09/02 12:36:46;;;;;;;0.50;0.30;;;31.70;41.90;;;;;;5050896;28;20465;-79
2022/09/02 12:39:45;;;;;;;0.50;0.30;;;31.70;43.00;;;;;;5051197;28;20437;-78
2022/09/02 12:42:22;;;;;;;0.50;0.30;;;31.30;42.10;;;;;;5051783;28;20425;-79
2022/09/02 12:44:55;;;;;;;0.50;0.30;;;31.00;42.80;;;;;;5051206;28;20926;-79
2022/09/02 12:47:38;;;;;;;0.50;0.30;;;31.00;43.10;;;;;;5051555;28;20435;-77
2022/09/02 12:50:07;;;;;;;0.70;0.70;;;30.80;42.90;;;;;;5051614;28;20459;-78
2022/09/02 12:52:46;;;;;;;0.50;0.30;;;30.60;43.80;;;;;;5051021;28;21081;-77
2022/09/02 12:55:19;;;;;;;0.50;0.30;;;30.00;44.00;;;;;;5051135;28;20532;-78
2022/09/02 12:57:50;;;;;;;0.50;0.40;;;29.90;44.30;;;;;;5051384;28;20425;-78
2022/09/02 13:00:27;;;;;;;0.50;0.40;;;29.80;44.20;;;;;;5050939;28;20483;-78
2022/09/02 13:03:08;;;;;;;0.50;0.30;;;29.20;44.60;;;;;;5050982;28;20429;-78
2022/09/02 13:05:50;;;;;;;2.20;1.37;;;28.90;45.60;;;;;;5050446;28;20461;-77
2022/09/02 13:08:49;;;;;;;3.37;1.60;;;28.70;45.60;;;;;;5050881;28;20527;-78
2022/09/02 13:12:06;;;;;;;0.60;0.50;;;28.30;45.40;;;;;;5050176;28;20491;-78